Aegean Orion — SVA2487 — position and weather

sailwx.info

Track history (hours):
 
Tides and Currents Weather Stations Pressure Air Temp Water Temp Dewpoint Dewpoint Depression Visibility Wind Speed Wind Dir Waves Ship Positions

Aegean Orion

Last reported at 2015-Mar-03 14:31 UTC. Time now 2015-Mar-03 15:09 UTC.
Position N 38°02' E 023°32'.

; draft 2.4 m.

Type: Ship. MMSI: 239550200.

Date/timePositionNaut miles runAvg speedWind from/ knotsBaromVisibWave heightAir tempDewpointWater temp
2015-Mar-03 14:31N 38°02' E 023°32'0 0.0
2015-Mar-03 13:33N 38°02' E 023°32'0 0.0
2015-Mar-03 12:33N 38°02' E 023°32'0 0.0
2015-Mar-03 11:33N 38°02' E 023°32'0 0.0
2015-Mar-03 10:33N 38°02' E 023°32'0 0.0
2015-Mar-03 09:33N 38°02' E 023°32'0 0.0
2015-Mar-03 08:33N 38°02' E 023°32'1 0.5
2015-Mar-03 07:34N 38°02' E 023°32'3 2.7
2015-Mar-03 06:33N 38°02' E 023°36'0 0.4
2015-Mar-03 05:33N 38°02' E 023°35'3 0.2
2015-Mar-02 16:33N 38°02' E 023°32'4 3.6
2015-Mar-02 15:22N 37°58' E 023°33'5 5.7
2015-Mar-02 14:33N 37°57' E 023°38'0 0.0
2015-Mar-02 13:33N 37°57' E 023°38'2 2.1
2015-Mar-02 12:33N 37°57' E 023°36'5 4.6
2015-Mar-02 11:33N 38°01' E 023°35'1 0.9
2015-Mar-02 10:31N 38°02' E 023°35'0 0.0
2015-Mar-02 08:16N 38°02' E 023°35'3 3.0
2015-Mar-02 07:23N 38°02' E 023°32'0 0.0
2015-Mar-02 06:33N 38°02' E 023°32'0 0.0
2015-Feb-28 11:12N 38°02' E 023°32'4 5.5
2015-Feb-28 10:33N 37°59' E 023°33'5 4.7
2015-Feb-28 09:33N 37°57' E 023°38'0 0.0
2015-Feb-28 08:33N 37°57' E 023°38'0 0.0
2015-Feb-28 07:33N 37°57' E 023°38'1 0.9
2015-Feb-28 06:33N 37°56' E 023°37'6 5.7
2015-Feb-28 05:33N 38°01' E 023°33'2 0.1
2015-Feb-27 13:21N 38°02' E 023°32'1 1.3
2015-Feb-27 12:33N 38°02' E 023°31'0 0.0
2015-Feb-27 11:34N 38°02' E 023°31'0 0.0
2015-Feb-27 10:33N 38°02' E 023°31'0 0.0
2015-Feb-27 09:33N 38°02' E 023°31'0 0.0
2015-Feb-27 08:33N 38°02' E 023°31'0 0.0
2015-Feb-27 07:33N 38°02' E 023°31'0 0.4
2015-Feb-27 06:33N 38°02' E 023°31'1 0.5
2015-Feb-27 05:34N 38°02' E 023°32'0 0.2
2015-Feb-27 04:24N 38°02' E 023°32'0 0.0
2015-Feb-26 17:10N 38°02' E 023°32'0 0.0
2015-Feb-26 12:33N 38°02' E 023°32'4 4.4
2015-Feb-26 11:33N 37°58' E 023°33'4 3.9
2015-Feb-26 10:33N 37°56' E 023°37'0 0.0
2015-Feb-26 09:33N 37°56' E 023°37'1 1.1
2015-Feb-26 08:33N 37°57' E 023°36'1 1.2
2015-Feb-26 07:33N 37°57' E 023°35'0 0.0
2015-Feb-26 06:33N 37°57' E 023°35'2 2.0
2015-Feb-26 05:33N 37°56' E 023°37'1 0.3
2015-Feb-26 03:08N 37°57' E 023°38'2 3.5
2015-Feb-26 02:33N 37°57' E 023°36'1 0.8
2015-Feb-26 01:33N 37°57' E 023°35'0 0.0
2015-Feb-26 00:33N 37°57' E 023°35'0 0.0
2015-Feb-25 23:33N 37°57' E 023°35'3 3.1
2015-Feb-25 22:33N 37°55' E 023°33'7 6.6
2015-Feb-25 21:33N 37°52' E 023°25'6 5.5
2015-Feb-25 20:33N 37°58' E 023°26'6 6.1
2015-Feb-25 19:32N 38°02' E 023°32'0 0.2
2015-Feb-25 18:33N 38°02' E 023°32'0 0.0
2015-Feb-25 17:33N 38°02' E 023°32'3 0.1
2015-Feb-23 15:33N 37°60' E 023°33'5 5.3
2015-Feb-23 14:33N 37°57' E 023°38'0 0.0
2015-Feb-23 13:34N 37°57' E 023°38'3 3.5
2015-Feb-23 12:34N 37°57' E 023°34'5 5.3
2015-Feb-23 11:33N 38°02' E 023°32'0 0.0
2015-Feb-22 05:33N 38°02' E 023°32'5 4.9
2015-Feb-22 04:33N 37°57' E 023°33'1 0.9
2015-Feb-22 03:33N 37°57' E 023°35'0 0.0
2015-Feb-22 02:33N 37°57' E 023°35'0 0.0
2015-Feb-22 01:33N 37°57' E 023°35'0 0.0
2015-Feb-22 00:33N 37°57' E 023°35'0 0.0
2015-Feb-21 23:33N 37°57' E 023°35'0 0.0
2015-Feb-21 22:33N 37°57' E 023°35'0 0.0
2015-Feb-21 21:33N 37°57' E 023°35'0 0.0
2015-Feb-21 20:33N 37°57' E 023°35'1 0.8
2015-Feb-21 19:34N 37°57' E 023°35'2 1.6
2015-Feb-21 18:33N 37°56' E 023°38'0 0.0
2015-Feb-21 17:33N 37°56' E 023°38'1 0.9
2015-Feb-21 16:33N 37°56' E 023°36'4 4.0
2015-Feb-21 15:33N 37°59' E 023°33'3 3.1
2015-Feb-21 14:32N 38°02' E 023°32'  
Track history (hours):
 
Tides and Currents Weather Stations Pressure Air Temp Water Temp Dewpoint Dewpoint Depression Visibility Wind Speed Wind Dir Waves Ship Positions

Aegean Orion

Last reported at 2015-Mar-03 14:31 UTC. Time now 2015-Mar-03 15:09 UTC.
Position N 38°02' E 023°32'.

; draft 2.4 m.

Type: Ship. MMSI: 239550200.

Date/timePositionNaut miles runAvg speedWind from/ knotsBaromVisibWave heightAir tempDewpointWater temp
2015-Mar-03 14:31N 38°02' E 023°32'0 0.0
2015-Mar-03 13:33N 38°02' E 023°32'0 0.0
2015-Mar-03 12:33N 38°02' E 023°32'0 0.0
2015-Mar-03 11:33N 38°02' E 023°32'0 0.0
2015-Mar-03 10:33N 38°02' E 023°32'0 0.0
2015-Mar-03 09:33N 38°02' E 023°32'0 0.0
2015-Mar-03 08:33N 38°02' E 023°32'1 0.5
2015-Mar-03 07:34N 38°02' E 023°32'3 2.7
2015-Mar-03 06:33N 38°02' E 023°36'0 0.4
2015-Mar-03 05:33N 38°02' E 023°35'3 0.2
2015-Mar-02 16:33N 38°02' E 023°32'4 3.6
2015-Mar-02 15:22N 37°58' E 023°33'5 5.7
2015-Mar-02 14:33N 37°57' E 023°38'0 0.0
2015-Mar-02 13:33N 37°57' E 023°38'2 2.1
2015-Mar-02 12:33N 37°57' E 023°36'5 4.6
2015-Mar-02 11:33N 38°01' E 023°35'1 0.9
2015-Mar-02 10:31N 38°02' E 023°35'0 0.0
2015-Mar-02 08:16N 38°02' E 023°35'3 3.0
2015-Mar-02 07:23N 38°02' E 023°32'0 0.0
2015-Mar-02 06:33N 38°02' E 023°32'0 0.0
2015-Feb-28 11:12N 38°02' E 023°32'4 5.5
2015-Feb-28 10:33N 37°59' E 023°33'5 4.7
2015-Feb-28 09:33N 37°57' E 023°38'0 0.0
2015-Feb-28 08:33N 37°57' E 023°38'0 0.0
2015-Feb-28 07:33N 37°57' E 023°38'1 0.9
2015-Feb-28 06:33N 37°56' E 023°37'6 5.7
2015-Feb-28 05:33N 38°01' E 023°33'2 0.1
2015-Feb-27 13:21N 38°02' E 023°32'1 1.3
2015-Feb-27 12:33N 38°02' E 023°31'0 0.0
2015-Feb-27 11:34N 38°02' E 023°31'0 0.0
2015-Feb-27 10:33N 38°02' E 023°31'0 0.0
2015-Feb-27 09:33N 38°02' E 023°31'0 0.0
2015-Feb-27 08:33N 38°02' E 023°31'0 0.0
2015-Feb-27 07:33N 38°02' E 023°31'0 0.4
2015-Feb-27 06:33N 38°02' E 023°31'1 0.5
2015-Feb-27 05:34N 38°02' E 023°32'0 0.2
2015-Feb-27 04:24N 38°02' E 023°32'0 0.0
2015-Feb-26 17:10N 38°02' E 023°32'0 0.0
2015-Feb-26 12:33N 38°02' E 023°32'4 4.4
2015-Feb-26 11:33N 37°58' E 023°33'4 3.9
2015-Feb-26 10:33N 37°56' E 023°37'0 0.0
2015-Feb-26 09:33N 37°56' E 023°37'1 1.1
2015-Feb-26 08:33N 37°57' E 023°36'1 1.2
2015-Feb-26 07:33N 37°57' E 023°35'0 0.0
2015-Feb-26 06:33N 37°57' E 023°35'2 2.0
2015-Feb-26 05:33N 37°56' E 023°37'1 0.3
2015-Feb-26 03:08N 37°57' E 023°38'2 3.5
2015-Feb-26 02:33N 37°57' E 023°36'1 0.8
2015-Feb-26 01:33N 37°57' E 023°35'0 0.0
2015-Feb-26 00:33N 37°57' E 023°35'0 0.0
2015-Feb-25 23:33N 37°57' E 023°35'3 3.1
2015-Feb-25 22:33N 37°55' E 023°33'7 6.6
2015-Feb-25 21:33N 37°52' E 023°25'6 5.5
2015-Feb-25 20:33N 37°58' E 023°26'6 6.1
2015-Feb-25 19:32N 38°02' E 023°32'0 0.2
2015-Feb-25 18:33N 38°02' E 023°32'0 0.0
2015-Feb-25 17:33N 38°02' E 023°32'3 0.1
2015-Feb-23 15:33N 37°60' E 023°33'5 5.3
2015-Feb-23 14:33N 37°57' E 023°38'0 0.0
2015-Feb-23 13:34N 37°57' E 023°38'3 3.5
2015-Feb-23 12:34N 37°57' E 023°34'5 5.3
2015-Feb-23 11:33N 38°02' E 023°32'0 0.0
2015-Feb-22 05:33N 38°02' E 023°32'5 4.9
2015-Feb-22 04:33N 37°57' E 023°33'1 0.9
2015-Feb-22 03:33N 37°57' E 023°35'0 0.0
2015-Feb-22 02:33N 37°57' E 023°35'0 0.0
2015-Feb-22 01:33N 37°57' E 023°35'0 0.0
2015-Feb-22 00:33N 37°57' E 023°35'0 0.0
2015-Feb-21 23:33N 37°57' E 023°35'0 0.0
2015-Feb-21 22:33N 37°57' E 023°35'0 0.0
2015-Feb-21 21:33N 37°57' E 023°35'0 0.0
2015-Feb-21 20:33N 37°57' E 023°35'1 0.8
2015-Feb-21 19:34N 37°57' E 023°35'2 1.6
2015-Feb-21 18:33N 37°56' E 023°38'0 0.0
2015-Feb-21 17:33N 37°56' E 023°38'1 0.9
2015-Feb-21 16:33N 37°56' E 023°36'4 4.0
2015-Feb-21 15:33N 37°59' E 023°33'3 3.1
2015-Feb-21 14:32N 38°02' E 023°32'  

Dump ship's entire track history